Lowndesboro, Alabama
Current Conditions -  °F | °C
As of 2:53 PM on Thursday 27 Nov 2014 (Local Time) from KMGM Reporting Station
Clear Clear  
Wind Chill: 53°   Ceiling: Unl
Heat Index: 53°   Visibility: 10mi
Dew Point: 28°   Wind: 9mph
Humidity: 38%   Direction: 350°N
Pressure: 30.36"   Gusts: 18mph
Location:  32.28°N, 86.61°W
Report Text: KMGM 272053Z 35008G16KT 10SM CLR 12/M02 A3036 RMK AO2 SLP281 T01171022 55001
Loading
Personal Weather Stations






























Interactive Weather Map New forecast layout! Learn more

10-Day Weather Forecast

Advertisements
Track Severe Weather on mobile